createdAt,value
2022-09-25T00:00:54.499Z,0.10
2022-09-25T00:03:23.092Z,0.30
2022-09-25T00:05:49.883Z,0.10
2022-09-25T00:08:18.329Z,0.50
2022-09-25T00:10:48.990Z,0.35
2022-09-25T00:13:18.562Z,0.40
2022-09-25T00:15:49.796Z,0.17
2022-09-25T00:18:16.960Z,0.00
2022-09-25T00:20:43.852Z,0.20
2022-09-25T00:23:10.583Z,0.20
2022-09-25T00:25:37.230Z,0.30
2022-09-25T00:28:04.029Z,0.28
2022-09-25T00:30:30.805Z,0.10
2022-09-25T00:32:57.512Z,0.00
2022-09-25T00:35:24.307Z,0.10
2022-09-25T00:37:51.035Z,0.10
2022-09-25T00:40:19.531Z,0.10
2022-09-25T00:42:46.217Z,0.28
2022-09-25T00:45:18.730Z,0.10
2022-09-25T00:47:48.919Z,0.60
2022-09-25T00:50:34.626Z,0.40
2022-09-25T00:53:08.506Z,0.35
2022-09-25T00:55:38.213Z,0.10
2022-09-25T00:58:06.086Z,0.10
2022-09-25T01:00:33.453Z,0.33
2022-09-25T01:03:01.518Z,0.27
2022-09-25T01:05:31.502Z,0.10
2022-09-25T01:08:01.215Z,0.00
2022-09-25T01:10:28.558Z,0.20
2022-09-25T01:12:57.298Z,0.80
2022-09-25T01:15:30.037Z,0.55
2022-09-25T01:18:01.165Z,0.10
2022-09-25T01:20:28.829Z,0.00
2022-09-25T01:23:17.599Z,0.20
2022-09-25T01:25:56.797Z,0.10
2022-09-25T01:28:56.573Z,0.30
2022-09-25T01:31:47.799Z,0.10
2022-09-25T01:34:22.691Z,0.30
2022-09-25T01:37:03.523Z,0.10
2022-09-25T01:39:35.182Z,0.40
2022-09-25T01:42:11.822Z,0.10
2022-09-25T01:44:46.231Z,1.20
2022-09-25T01:47:20.129Z,0.15
2022-09-25T01:49:50.798Z,0.20
2022-09-25T01:52:19.165Z,0.05
2022-09-25T01:54:52.316Z,0.50
2022-09-25T01:57:26.501Z,0.20
2022-09-25T02:00:08.457Z,0.20
2022-09-25T02:02:43.151Z,0.40
2022-09-25T02:05:18.325Z,0.00
2022-09-25T02:07:50.821Z,0.23
2022-09-25T02:10:23.713Z,0.10
2022-09-25T02:12:55.376Z,0.13
2022-09-25T02:15:28.573Z,0.30
2022-09-25T02:18:23.116Z,0.30
2022-09-25T02:20:59.117Z,0.30
2022-09-25T02:23:31.224Z,0.10
2022-09-25T02:26:09.115Z,0.20
2022-09-25T02:28:36.549Z,0.17
2022-09-25T02:31:07.560Z,0.10
2022-09-25T02:33:35.223Z,0.43
2022-09-25T02:36:04.884Z,0.40
2022-09-25T02:38:33.589Z,0.00
2022-09-25T02:41:21.256Z,0.10
2022-09-25T02:44:22.814Z,0.00
2022-09-25T02:47:08.127Z,0.20
2022-09-25T02:49:55.978Z,0.13
2022-09-25T02:52:27.768Z,0.40
2022-09-25T02:55:02.513Z,0.10
2022-09-25T02:57:38.692Z,0.13
2022-09-25T03:00:08.020Z,0.10
2022-09-25T03:02:36.523Z,0.20
2022-09-25T03:05:06.804Z,0.40
2022-09-25T03:07:53.718Z,0.22
2022-09-25T03:10:21.363Z,0.38
2022-09-25T03:12:48.030Z,0.20
2022-09-25T03:15:14.667Z,0.10
2022-09-25T03:17:41.574Z,0.20
2022-09-25T03:20:09.905Z,0.68
2022-09-25T03:22:37.541Z,0.00
2022-09-25T03:25:05.524Z,0.10
2022-09-25T03:27:32.239Z,0.30
2022-09-25T03:29:58.936Z,0.60
2022-09-25T03:32:25.584Z,0.20
2022-09-25T03:34:52.234Z,0.80
2022-09-25T03:37:18.885Z,0.15
2022-09-25T03:39:46.284Z,0.32
2022-09-25T03:42:14.960Z,0.20
2022-09-25T03:44:42.974Z,0.30
2022-09-25T03:47:09.598Z,0.10
2022-09-25T03:49:36.212Z,0.10
2022-09-25T03:52:03.023Z,0.10
2022-09-25T03:54:30.283Z,0.20
2022-09-25T03:56:57.639Z,0.28
2022-09-25T03:59:24.307Z,0.50
2022-09-25T04:01:50.976Z,0.10
2022-09-25T04:04:17.662Z,0.10
2022-09-25T04:06:44.287Z,0.20
2022-09-25T04:09:10.991Z,0.20
2022-09-25T04:11:37.970Z,1.10
2022-09-25T04:14:05.200Z,0.60
2022-09-25T04:16:32.057Z,0.30
2022-09-25T04:18:58.802Z,0.30
2022-09-25T04:21:25.556Z,0.20
2022-09-25T04:24:12.188Z,0.50
2022-09-25T04:26:38.916Z,0.40
2022-09-25T04:29:05.742Z,0.20
2022-09-25T04:31:33.062Z,0.20
2022-09-25T04:33:59.854Z,0.30
2022-09-25T04:36:26.701Z,0.13
2022-09-25T04:38:53.435Z,0.53
2022-09-25T04:41:20.295Z,0.10
2022-09-25T04:43:47.640Z,0.20
2022-09-25T04:46:20.331Z,0.23
2022-09-25T04:48:48.354Z,0.70
2022-09-25T04:51:15.032Z,0.20
2022-09-25T04:53:41.737Z,0.20
2022-09-25T04:56:14.744Z,0.20
2022-09-25T04:58:47.692Z,0.60
2022-09-25T05:01:15.925Z,0.40
2022-09-25T05:03:42.957Z,0.32
2022-09-25T05:06:09.776Z,0.20
2022-09-25T05:08:36.422Z,0.50
2022-09-25T05:11:03.814Z,0.10
2022-09-25T05:13:30.567Z,0.30
2022-09-25T05:15:57.991Z,0.20
2022-09-25T05:18:24.908Z,0.20
2022-09-25T05:20:53.457Z,0.30
2022-09-25T05:23:20.885Z,0.20
2022-09-25T05:25:58.254Z,0.10
2022-09-25T05:28:25.031Z,0.13
2022-09-25T05:30:51.928Z,0.05
2022-09-25T05:33:19.039Z,0.20
2022-09-25T05:35:45.926Z,0.30
2022-09-25T05:38:12.628Z,0.40
2022-09-25T05:40:39.540Z,0.40
2022-09-25T05:43:06.828Z,0.10
2022-09-25T05:45:35.604Z,0.40
2022-09-25T05:48:03.460Z,0.13
2022-09-25T05:50:32.266Z,0.47
2022-09-25T05:53:00.121Z,0.20
2022-09-25T05:55:27.507Z,0.40
2022-09-25T05:57:54.261Z,0.10
2022-09-25T06:00:20.986Z,0.50
2022-09-25T06:02:52.514Z,0.10
2022-09-25T06:05:19.884Z,0.30
2022-09-25T06:07:52.842Z,0.70
2022-09-25T06:10:19.670Z,0.30
2022-09-25T06:12:46.296Z,0.82
2022-09-25T06:15:12.957Z,0.30
2022-09-25T06:17:39.619Z,0.85
2022-09-25T06:20:08.041Z,0.50
2022-09-25T06:22:36.565Z,0.40
2022-09-25T06:25:04.517Z,0.30
2022-09-25T06:27:31.563Z,0.80
2022-09-25T06:29:58.222Z,0.20
2022-09-25T06:32:24.905Z,0.17
2022-09-25T06:34:51.590Z,0.15
2022-09-25T06:37:18.216Z,0.10
2022-09-25T06:39:44.857Z,0.10
2022-09-25T06:42:11.938Z,0.93
2022-09-25T06:44:38.704Z,0.10
2022-09-25T06:47:05.776Z,0.00
2022-09-25T06:49:32.479Z,0.10
2022-09-25T06:51:59.143Z,0.20
2022-09-25T06:54:25.865Z,0.80
2022-09-25T06:56:52.575Z,0.22
2022-09-25T06:59:19.196Z,0.38
2022-09-25T07:01:46.279Z,0.95
2022-09-25T07:04:13.472Z,6.90
2022-09-25T07:06:40.656Z,7.13
2022-09-25T07:09:07.292Z,6.88
2022-09-25T07:11:33.972Z,6.10
2022-09-25T07:14:01.073Z,5.87
2022-09-25T07:16:30.014Z,6.05
2022-09-25T07:19:00.275Z,6.72
2022-09-25T07:21:30.519Z,5.78
2022-09-25T07:23:58.204Z,5.13
2022-09-25T07:26:27.382Z,7.35
2022-09-25T07:28:57.858Z,7.53
2022-09-25T07:31:28.718Z,7.47
2022-09-25T07:33:57.065Z,6.63
2022-09-25T07:36:23.731Z,7.32
2022-09-25T07:38:51.490Z,6.90
2022-09-25T07:41:19.763Z,7.15
2022-09-25T07:43:46.873Z,7.70
2022-09-25T07:46:13.685Z,7.10
2022-09-25T07:48:40.455Z,7.68
2022-09-25T07:51:09.914Z,9.85
2022-09-25T07:53:36.686Z,11.75
2022-09-25T07:56:06.864Z,13.48
2022-09-25T07:58:35.320Z,11.02
2022-09-25T08:01:04.265Z,10.65
2022-09-25T08:03:31.365Z,10.65
2022-09-25T08:05:59.926Z,11.10
2022-09-25T08:08:27.907Z,8.82
2022-09-25T08:11:03.241Z,10.90
2022-09-25T08:13:32.668Z,16.77
2022-09-25T08:16:03.736Z,14.48
2022-09-25T08:18:30.613Z,13.88
2022-09-25T08:21:05.121Z,12.77
2022-09-25T08:23:32.297Z,13.25
2022-09-25T08:25:59.430Z,15.57
2022-09-25T08:28:26.152Z,12.63
2022-09-25T08:30:53.587Z,13.48
2022-09-25T08:33:20.618Z,12.07
2022-09-25T08:35:56.701Z,10.10
2022-09-25T08:38:24.219Z,12.30
2022-09-25T08:40:56.573Z,14.40
2022-09-25T08:43:25.825Z,13.20
2022-09-25T08:46:14.732Z,14.55
2022-09-25T08:49:07.384Z,11.90
2022-09-25T08:51:38.858Z,13.38
2022-09-25T08:54:06.339Z,10.43
2022-09-25T08:56:35.666Z,9.45
2022-09-25T08:59:10.624Z,11.73
2022-09-25T09:01:38.832Z,11.50
2022-09-25T09:04:13.420Z,9.98
2022-09-25T09:06:43.701Z,10.80
2022-09-25T09:09:34.863Z,11.98
2022-09-25T09:12:12.373Z,9.00
2022-09-25T09:14:45.373Z,9.83
2022-09-25T09:17:18.618Z,9.90
2022-09-25T09:19:48.650Z,10.50
2022-09-25T09:22:21.328Z,12.13
2022-09-25T09:25:07.938Z,9.00
2022-09-25T09:27:54.456Z,9.87
2022-09-25T09:30:24.166Z,10.80
2022-09-25T09:33:30.658Z,10.90
2022-09-25T09:36:32.810Z,9.25
2022-09-25T09:39:14.628Z,10.35
2022-09-25T09:42:04.007Z,10.60
2022-09-25T09:44:37.026Z,11.77
2022-09-25T09:47:25.551Z,10.43
2022-09-25T09:50:15.601Z,12.75
2022-09-25T09:52:46.997Z,11.40
2022-09-25T09:55:24.625Z,12.88
2022-09-25T09:57:54.907Z,11.00
2022-09-25T10:00:23.036Z,10.70
2022-09-25T10:03:10.119Z,10.65
2022-09-25T10:05:45.052Z,10.82
2022-09-25T10:08:12.307Z,10.55
2022-09-25T10:10:42.884Z,9.65
2022-09-25T10:13:15.227Z,9.88
2022-09-25T10:15:45.449Z,10.35
2022-09-25T10:18:13.650Z,9.65
2022-09-25T10:20:45.859Z,9.95
2022-09-25T10:23:36.021Z,9.27
2022-09-25T10:26:02.712Z,8.75
2022-09-25T10:28:35.914Z,8.13
2022-09-25T10:31:06.094Z,9.03
2022-09-25T10:33:33.196Z,7.35
2022-09-25T10:36:00.441Z,7.30
2022-09-25T10:38:49.967Z,7.87
2022-09-25T10:41:20.509Z,7.30
2022-09-25T10:43:51.859Z,8.33
2022-09-25T10:46:50.098Z,6.40
2022-09-25T10:49:41.529Z,6.43
2022-09-25T10:52:11.779Z,6.50
2022-09-25T10:54:44.536Z,6.68
2022-09-25T10:57:18.617Z,5.35
2022-09-25T10:59:50.147Z,4.28
2022-09-25T11:02:29.605Z,5.30
2022-09-25T11:04:57.346Z,5.27
2022-09-25T11:07:27.719Z,6.10
2022-09-25T11:09:59.775Z,7.00
2022-09-25T11:12:29.798Z,6.83
2022-09-25T11:15:01.469Z,6.93
2022-09-25T11:17:31.423Z,7.32
2022-09-25T11:20:18.405Z,7.25
2022-09-25T11:22:49.288Z,7.50
2022-09-25T11:25:19.239Z,8.00
2022-09-25T11:27:49.013Z,7.72
2022-09-25T11:30:18.262Z,8.27
2022-09-25T11:32:51.693Z,8.18
2022-09-25T11:35:23.184Z,7.20
2022-09-25T11:37:55.423Z,7.60
2022-09-25T11:40:58.043Z,6.68
2022-09-25T11:43:36.602Z,7.30
2022-09-25T11:46:08.257Z,7.97
2022-09-25T11:48:37.332Z,7.10
2022-09-25T11:51:05.946Z,6.55
2022-09-25T11:53:52.931Z,6.38
2022-09-25T11:56:27.619Z,7.23
2022-09-25T11:59:03.841Z,6.00
2022-09-25T12:01:49.491Z,4.80
2022-09-25T12:04:16.567Z,5.65
2022-09-25T12:06:54.026Z,6.50
2022-09-25T12:09:42.438Z,6.28
2022-09-25T12:12:29.482Z,5.40
2022-09-25T12:14:57.537Z,4.85
2022-09-25T12:17:24.578Z,5.90
2022-09-25T12:19:58.824Z,6.82
2022-09-25T12:22:45.981Z,5.20
2022-09-25T12:25:33.156Z,6.18
2022-09-25T12:28:08.865Z,8.05
2022-09-25T12:30:41.589Z,7.57
2022-09-25T12:33:33.085Z,8.30
2022-09-25T12:36:00.430Z,6.78
2022-09-25T12:38:55.213Z,7.45
2022-09-25T12:41:24.010Z,7.10
2022-09-25T12:43:54.873Z,7.70
2022-09-25T12:46:26.368Z,7.25
2022-09-25T12:48:56.649Z,7.22
2022-09-25T12:51:29.525Z,7.17
2022-09-25T12:53:59.520Z,7.57
2022-09-25T12:56:37.661Z,7.82
2022-09-25T12:59:10.944Z,8.20
2022-09-25T13:01:58.047Z,8.75
2022-09-25T13:04:35.144Z,9.60
2022-09-25T13:07:05.920Z,10.48
2022-09-25T13:09:43.266Z,9.60
2022-09-25T13:12:16.876Z,9.13
2022-09-25T13:14:46.684Z,7.67
2022-09-25T13:17:15.842Z,6.05
2022-09-25T13:19:43.028Z,6.17
2022-09-25T13:22:13.696Z,6.78
2022-09-25T13:24:44.996Z,6.63
2022-09-25T13:27:15.322Z,5.82
2022-09-25T13:29:43.149Z,5.13
2022-09-25T13:32:13.530Z,6.60
2022-09-25T13:34:41.412Z,5.07
2022-09-25T13:37:09.949Z,6.57
2022-09-25T13:40:00.589Z,5.93
2022-09-25T13:42:37.420Z,6.47
2022-09-25T13:45:07.455Z,5.70
2022-09-25T13:47:43.256Z,6.20
2022-09-25T13:50:11.304Z,5.40
2022-09-25T13:52:39.674Z,5.28
2022-09-25T13:55:19.393Z,5.78
2022-09-25T13:58:02.405Z,6.55
2022-09-25T14:00:53.298Z,6.00
2022-09-25T14:03:41.730Z,6.68
2022-09-25T14:06:13.476Z,8.57
2022-09-25T14:08:42.263Z,6.38
2022-09-25T14:11:12.041Z,8.32
2022-09-25T14:13:46.611Z,6.77
2022-09-25T14:16:20.288Z,7.85
2022-09-25T14:18:54.176Z,6.78
2022-09-25T14:21:22.643Z,6.63
2022-09-25T14:23:51.604Z,8.15
2022-09-25T14:26:21.584Z,6.53
2022-09-25T14:28:49.720Z,6.60
2022-09-25T14:31:32.638Z,11.00
2022-09-25T14:34:19.757Z,7.47
2022-09-25T14:37:06.909Z,7.93
2022-09-25T14:39:33.964Z,6.60
2022-09-25T14:42:21.321Z,6.38
2022-09-25T14:44:49.380Z,6.63
2022-09-25T14:47:17.879Z,7.60
2022-09-25T14:49:47.228Z,6.50
2022-09-25T14:52:16.959Z,5.93
2022-09-25T14:54:46.326Z,7.40
2022-09-25T14:57:16.193Z,6.38
2022-09-25T14:59:45.751Z,7.60
2022-09-25T15:02:17.982Z,6.47
2022-09-25T15:04:45.054Z,6.40
2022-09-25T15:07:17.211Z,6.22
2022-09-25T15:09:48.730Z,7.23
2022-09-25T15:12:18.782Z,7.37
2022-09-25T15:15:02.351Z,6.35
2022-09-25T15:17:31.179Z,6.07
2022-09-25T15:19:59.690Z,6.80
2022-09-25T15:22:30.832Z,7.32
2022-09-25T15:25:00.776Z,7.57
2022-09-25T15:27:28.358Z,7.30
2022-09-25T15:29:56.313Z,6.63
2022-09-25T15:32:37.538Z,6.47
2022-09-25T15:35:15.812Z,5.85
2022-09-25T15:37:42.990Z,7.18
2022-09-25T15:40:28.733Z,7.47
2022-09-25T15:42:56.163Z,7.30
2022-09-25T15:45:43.210Z,6.55
2022-09-25T15:48:11.800Z,5.60
2022-09-25T15:50:43.243Z,5.95
2022-09-25T15:53:18.408Z,5.75
2022-09-25T15:55:46.331Z,5.50
2022-09-25T15:58:15.544Z,5.70
2022-09-25T16:01:15.648Z,6.20
2022-09-25T16:04:05.980Z,5.88
2022-09-25T16:06:38.459Z,8.40
2022-09-25T16:09:09.296Z,6.97
2022-09-25T16:11:36.354Z,8.20
2022-09-25T16:14:22.036Z,9.05
2022-09-25T16:16:50.094Z,8.20
2022-09-25T16:19:25.587Z,7.53
2022-09-25T16:21:53.330Z,8.07
2022-09-25T16:24:22.156Z,5.73
2022-09-25T16:26:54.651Z,5.63
2022-09-25T16:29:23.011Z,5.32
2022-09-25T16:31:53.306Z,5.93
2022-09-25T16:34:27.306Z,6.97
2022-09-25T16:36:58.146Z,11.68
2022-09-25T16:39:26.624Z,7.53
2022-09-25T16:41:54.223Z,23.85
2022-09-25T16:44:21.290Z,13.43
2022-09-25T16:46:49.452Z,10.57
2022-09-25T16:49:18.213Z,7.18
2022-09-25T16:51:45.800Z,8.00
2022-09-25T16:54:15.252Z,5.57
2022-09-25T16:56:43.024Z,18.85
2022-09-25T16:59:18.569Z,12.45
2022-09-25T17:01:47.136Z,24.63
2022-09-25T17:04:15.729Z,19.05
2022-09-25T17:06:47.425Z,17.25
2022-09-25T17:09:15.235Z,14.65
2022-09-25T17:11:44.470Z,15.23
2022-09-25T17:14:28.606Z,12.05
2022-09-25T17:16:56.430Z,7.78
2022-09-25T17:19:23.771Z,10.23
2022-09-25T17:21:51.752Z,10.05
2022-09-25T17:24:20.210Z,9.30
2022-09-25T17:26:47.762Z,8.85
2022-09-25T17:29:14.869Z,9.07
2022-09-25T17:31:42.019Z,9.20
2022-09-25T17:34:16.700Z,7.82
2022-09-25T17:36:43.964Z,12.65
2022-09-25T17:39:11.123Z,13.43
2022-09-25T17:41:38.365Z,13.20
2022-09-25T17:44:06.621Z,10.80
2022-09-25T17:46:34.509Z,7.70
2022-09-25T17:49:01.721Z,6.32
2022-09-25T17:51:29.838Z,5.93
2022-09-25T17:53:57.580Z,5.47
2022-09-25T17:56:25.272Z,6.70
2022-09-25T17:58:53.073Z,9.10
2022-09-25T18:01:22.289Z,7.90
2022-09-25T18:03:50.535Z,9.00
2022-09-25T18:06:18.006Z,9.52
2022-09-25T18:08:45.122Z,7.70
2022-09-25T18:11:13.424Z,7.70
2022-09-25T18:13:41.918Z,7.10
2022-09-25T18:16:16.262Z,7.20
2022-09-25T18:19:04.182Z,7.80
2022-09-25T18:21:51.453Z,7.32
2022-09-25T18:24:18.832Z,6.93
2022-09-25T18:26:46.137Z,7.40
2022-09-25T18:29:16.930Z,6.60
2022-09-25T18:31:44.427Z,6.22
2022-09-25T18:34:11.615Z,6.15
2022-09-25T18:36:38.704Z,5.40
2022-09-25T18:39:05.933Z,5.57
2022-09-25T18:41:36.715Z,5.43
2022-09-25T18:44:06.935Z,5.47
2022-09-25T18:46:34.616Z,5.65
2022-09-25T18:49:01.835Z,7.07
2022-09-25T18:51:28.923Z,7.17
2022-09-25T18:53:56.003Z,7.38
2022-09-25T18:56:23.115Z,5.97
2022-09-25T18:58:51.642Z,7.05
2022-09-25T19:01:18.869Z,6.03
2022-09-25T19:03:53.695Z,5.97
2022-09-25T19:06:21.338Z,5.32
2022-09-25T19:08:53.026Z,5.78
2022-09-25T19:11:20.195Z,6.40
2022-09-25T19:13:49.060Z,5.00
2022-09-25T19:16:17.036Z,4.28
2022-09-25T19:18:45.134Z,4.43
2022-09-25T19:21:15.107Z,4.28
2022-09-25T19:23:42.815Z,4.70
2022-09-25T19:26:13.673Z,4.38
2022-09-25T19:28:41.843Z,5.22
2022-09-25T19:31:13.017Z,6.30
2022-09-25T19:33:40.073Z,6.55
2022-09-25T19:36:08.454Z,5.05
2022-09-25T19:38:38.231Z,5.85
2022-09-25T19:41:11.427Z,5.35
2022-09-25T19:43:38.959Z,5.10
2022-09-25T19:46:06.905Z,5.28
2022-09-25T19:48:34.021Z,8.27
2022-09-25T19:51:06.069Z,8.73
2022-09-25T19:53:33.131Z,8.95
2022-09-25T19:56:00.326Z,12.07
2022-09-25T19:58:27.817Z,13.07
2022-09-25T20:00:56.827Z,16.23
2022-09-25T20:03:24.186Z,16.30
2022-09-25T20:05:51.412Z,12.53
2022-09-25T20:08:18.753Z,11.23
2022-09-25T20:10:45.890Z,8.40
2022-09-25T20:13:13.581Z,7.10
2022-09-25T20:15:42.720Z,6.28
2022-09-25T20:18:09.434Z,6.20
2022-09-25T20:20:36.473Z,6.07
2022-09-25T20:23:03.522Z,7.32
2022-09-25T20:25:30.610Z,7.33
2022-09-25T20:27:58.407Z,6.55
2022-09-25T20:30:25.461Z,6.20
2022-09-25T20:32:52.569Z,6.20
2022-09-25T20:35:20.081Z,6.90
2022-09-25T20:37:47.638Z,6.87
2022-09-25T20:40:16.220Z,6.22
2022-09-25T20:42:43.421Z,6.07
2022-09-25T20:45:10.961Z,6.90
2022-09-25T20:47:45.142Z,6.30
2022-09-25T20:50:13.383Z,6.70
2022-09-25T20:52:40.414Z,6.72
2022-09-25T20:55:07.658Z,6.70
2022-09-25T20:57:34.762Z,7.00
2022-09-25T21:00:02.243Z,6.68
2022-09-25T21:02:29.803Z,7.22
2022-09-25T21:04:57.051Z,6.32
2022-09-25T21:07:25.648Z,6.97
2022-09-25T21:09:53.407Z,7.40
2022-09-25T21:12:21.428Z,7.03
2022-09-25T21:14:48.920Z,7.10
2022-09-25T21:17:15.985Z,6.97
2022-09-25T21:19:43.194Z,7.63
2022-09-25T21:22:10.822Z,7.05
2022-09-25T21:24:37.896Z,7.25
2022-09-25T21:27:05.012Z,6.97
2022-09-25T21:29:33.686Z,7.40
2022-09-25T21:32:01.382Z,8.07
2022-09-25T21:34:28.071Z,7.70
2022-09-25T21:36:55.181Z,8.43
2022-09-25T21:39:22.261Z,8.93
2022-09-25T21:41:49.839Z,8.85
2022-09-25T21:44:18.254Z,7.70
2022-09-25T21:46:45.446Z,8.15
2022-09-25T21:49:21.518Z,8.20
2022-09-25T21:51:49.538Z,9.68
2022-09-25T21:54:17.207Z,10.07
2022-09-25T21:56:44.488Z,10.50
2022-09-25T21:59:11.765Z,9.55
2022-09-25T22:01:40.065Z,9.77
2022-09-25T22:04:08.132Z,9.25
2022-09-25T22:06:37.220Z,9.43
2022-09-25T22:09:06.025Z,9.95
2022-09-25T22:11:33.592Z,11.32
2022-09-25T22:14:01.796Z,11.05
2022-09-25T22:16:30.639Z,11.27
2022-09-25T22:19:01.986Z,12.30
2022-09-25T22:21:30.757Z,12.70
2022-09-25T22:23:57.942Z,12.43
2022-09-25T22:26:25.548Z,12.60
2022-09-25T22:28:52.961Z,12.65
2022-09-25T22:31:21.272Z,11.85
2022-09-25T22:33:48.840Z,12.18
2022-09-25T22:36:15.973Z,12.00
2022-09-25T22:38:43.014Z,12.02
2022-09-25T22:41:11.881Z,12.07
2022-09-25T22:43:39.427Z,11.68
2022-09-25T22:46:07.266Z,11.73
2022-09-25T22:48:34.936Z,11.23
2022-09-25T22:51:05.158Z,11.00
2022-09-25T22:53:33.387Z,10.85
2022-09-25T22:56:08.432Z,10.73
2022-09-25T22:58:35.607Z,11.32
2022-09-25T23:01:02.762Z,11.15
2022-09-25T23:03:29.891Z,10.65
2022-09-25T23:05:59.824Z,9.90
2022-09-25T23:08:26.914Z,10.23
2022-09-25T23:11:06.730Z,9.88
2022-09-25T23:13:35.314Z,9.70
2022-09-25T23:16:09.586Z,9.45
2022-09-25T23:18:37.212Z,9.10
2022-09-25T23:21:04.519Z,8.85
2022-09-25T23:23:31.981Z,8.13
2022-09-25T23:26:07.428Z,8.17
2022-09-25T23:28:35.654Z,7.53
2022-09-25T23:31:11.029Z,8.03
2022-09-25T23:33:38.319Z,7.78
2022-09-25T23:36:06.405Z,8.50
2022-09-25T23:38:33.782Z,8.35
2022-09-25T23:41:01.052Z,8.87
2022-09-25T23:43:28.202Z,8.93
2022-09-25T23:45:55.829Z,8.52
2022-09-25T23:48:23.197Z,8.50
2022-09-25T23:50:51.258Z,8.55
2022-09-25T23:53:18.350Z,8.37
2022-09-25T23:55:45.565Z,8.40
2022-09-25T23:58:13.019Z,8.13
